»·PEaware :: N739HH KLAX-KSNA

N739HH :: KLAX-KSNA

FLIGHT INFORMATION

Flight Status: Arrived
Operator: Privately registered:
United States
More flights under this callsign
Pilot: Drew L. (13237)
Aircraft: CESSNA 172 SKYHAWK
(C172)
More flights by this aircraft type
Origin: KLAX Los Angeles Intl
United States
Destination: KSNA John Wayne-Orange Co
United States
More flights between these airports :: More routes between these airports
Route: SLI8 SLI
File this flight plan on PilotEdge
Remarks: i6 Rating
Altitude:
(Current/Filed)
4,000ft
Speed:
(Current/Filed)
455kts
Departed: 16-Apr-18 09:24 AM
Arrived: 16-Apr-18 10:05 AM
Distance/Time
Traveled:
31nm/0:41
Distance/Time
To Go:
Arrived

Flight Plot

Page will automatically refresh every two minutes.

Flight plan parsing failed; only flown route is shown


Map Options




Map Legend


Flown Route
Filed Route
Departure Airport
Arrival Airport
Navaid (VOR, NDB)
Fix

Horizontal Profiles

Position Reports

Time Latitude Longitude Heading Altitude Ground
Speed
16-Apr-18 09:02 33.933539 -118.396960 287 129ft 0kts
16-Apr-18 09:03 33.933539 -118.396960 287 129ft 0kts
16-Apr-18 09:04 33.933539 -118.396960 287 129ft 0kts
16-Apr-18 09:05 33.933539 -118.396960 287 129ft 0kts
16-Apr-18 09:06 33.933539 -118.396960 287 129ft 0kts
16-Apr-18 09:07 33.933539 -118.396960 287 129ft 0kts
16-Apr-18 09:08 33.933539 -118.396960 287 129ft 0kts
16-Apr-18 09:09 33.933539 -118.396960 287 129ft 0kts
16-Apr-18 09:10 33.933675 -118.397411 283 129ft 7kts
16-Apr-18 09:11 33.934531 -118.397918 69 129ft 12kts
16-Apr-18 09:12 33.934853 -118.393824 7 129ft 0kts
16-Apr-18 09:13 33.934853 -118.393824 7 129ft 0kts
16-Apr-18 09:14 33.934853 -118.393824 7 129ft 0kts
16-Apr-18 09:15 33.934853 -118.393824 7 129ft 0kts
16-Apr-18 09:16 33.934853 -118.393824 7 129ft 0kts
16-Apr-18 09:17 33.934853 -118.393824 7 129ft 0kts
16-Apr-18 09:18 33.934853 -118.393824 7 129ft 0kts
16-Apr-18 09:19 33.934853 -118.393824 7 129ft 0kts
16-Apr-18 09:20 33.934853 -118.393824 7 129ft 0kts
16-Apr-18 09:21 33.934853 -118.393824 7 129ft 0kts
16-Apr-18 09:22 33.935061 -118.393752 23 129ft 0kts
16-Apr-18 09:23 33.935268 -118.401844 262 311ft 69kts
16-Apr-18 09:24 33.931478 -118.428291 262 1198ft 83kts
16-Apr-18 09:25 33.927797 -118.455216 262 2189ft 80kts
16-Apr-18 09:26 33.914096 -118.473224 212 3099ft 83kts
16-Apr-18 09:27 33.890869 -118.481245 182 3897ft 95kts
16-Apr-18 09:28 33.860522 -118.478626 182 3961ft 118kts
16-Apr-18 09:29 33.829988 -118.467638 115 3944ft 129kts
16-Apr-18 09:30 33.824322 -118.424973 98 3940ft 130kts
16-Apr-18 09:31 33.819515 -118.381849 99 3938ft 130kts
16-Apr-18 09:32 33.814793 -118.338732 99 3935ft 130kts
16-Apr-18 09:33 33.810639 -118.296615 98 3938ft 130kts
16-Apr-18 09:34 33.806731 -118.254095 106 3946ft 128kts
16-Apr-18 09:35 33.800929 -118.212040 101 3955ft 127kts
16-Apr-18 09:36 33.796208 -118.170046 101 3965ft 126kts
16-Apr-18 09:37 33.791607 -118.128637 102 3976ft 124kts
16-Apr-18 09:38 33.787050 -118.087738 102 3987ft 122kts
16-Apr-18 09:39 33.786489 -118.047653 62 3993ft 126kts
16-Apr-18 09:40 33.802570 -118.010329 62 3991ft 121kts
16-Apr-18 09:41 33.815408 -117.975508 62 3992ft 109kts
16-Apr-18 09:42 33.827199 -117.943242 60 3993ft 105kts
16-Apr-18 09:43 33.838925 -117.911656 59 3993ft 102kts
16-Apr-18 09:44 33.850317 -117.880934 59 3993ft 100kts
16-Apr-18 09:45 33.861617 -117.851019 58 3993ft 98kts
16-Apr-18 09:46 33.873031 -117.821505 58 3987ft 97kts
16-Apr-18 09:47 33.884825 -117.791836 57 3976ft 98kts
16-Apr-18 09:48 33.896933 -117.761783 57 3966ft 101kts
16-Apr-18 09:49 33.910207 -117.729717 58 3509ft 114kts
16-Apr-18 09:50 33.926465 -117.702212 27 3445ft 94kts
16-Apr-18 09:51 33.948717 -117.687142 347 3449ft 90kts
16-Apr-18 09:52 33.948519 -117.711069 216 3457ft 97kts
16-Apr-18 09:53 33.921117 -117.718616 201 3450ft 102kts
16-Apr-18 09:54 33.894754 -117.731046 208 3453ft 101kts
16-Apr-18 09:55 33.869421 -117.745932 211 3459ft 101kts
16-Apr-18 09:56 33.844354 -117.761599 211 3465ft 102kts
16-Apr-18 09:57 33.818717 -117.777952 210 3100ft 104kts
16-Apr-18 09:58 33.792988 -117.794352 209 2566ft 106kts
16-Apr-18 09:59 33.766858 -117.810972 207 1986ft 105kts
16-Apr-18 10:00 33.741663 -117.826967 207 1421ft 101kts
16-Apr-18 10:01 33.717237 -117.842482 207 878ft 94kts
16-Apr-18 10:02 33.695228 -117.856440 207 397ft 86kts
16-Apr-18 10:03 33.678749 -117.866898 207 64ft 68kts
16-Apr-18 10:04 33.674250 -117.870930 274 60ft 5kts
16-Apr-18 10:05 33.674587 -117.871972 124 60ft 0kts
16-Apr-18 10:06 33.674587 -117.871972 124 60ft 0kts
16-Apr-18 10:07 33.674587 -117.871972 124 60ft 0kts
16-Apr-18 10:08 33.674587 -117.871972 124 60ft 0kts
16-Apr-18 10:09 33.674587 -117.871972 124 60ft 0kts
16-Apr-18 10:10 33.674587 -117.871972 124 60ft 0kts
16-Apr-18 10:11 33.674587 -117.871972 124 60ft 0kts
16-Apr-18 10:12 33.674587 -117.871972 124 60ft 0kts
16-Apr-18 10:13 33.674587 -117.871972 124 60ft 0kts
16-Apr-18 10:14 33.674587 -117.871972 124 60ft 0kts
16-Apr-18 10:15 33.674587 -117.871972 124 60ft 0kts
16-Apr-18 10:16 33.674587 -117.871972 124 60ft 0kts
16-Apr-18 10:17 33.674587 -117.871972 124 60ft 0kts

Navigation Log

Ident Type
Flight plan parsing failed, navigation log unavailable